Time;durP1;ratioP1;P1;durP2;ratioP2;P2;SDS_P1;SDS_P2;PMS_P1;PMS_P2;Temp;Humidity;BMP_temperature;BMP_pressure;BME280_temperature;BME280_humidity;BME280_pressure;Samples;Min_cycle;Max_cycle;Signal;HPM_P1;HPM_P2
2021/12/10 00:00:12;;;;;;;37.70;22.70;;;5.60;99.90;;;;;;5121547;28;20052;-65
2021/12/10 00:02:39;;;;;;;36.67;21.25;;;5.70;99.90;;;;;;5120359;28;20478;-65
2021/12/10 00:05:07;;;;;;;40.08;22.90;;;5.80;99.90;;;;;;5098313;28;20051;-65
2021/12/10 00:07:34;;;;;;;37.47;20.58;;;5.80;99.90;;;;;;5104141;28;20104;-65
2021/12/10 00:10:06;;;;;;;43.17;25.15;;;5.90;99.90;;;;;;5109128;28;20111;-65
2021/12/10 00:12:38;;;;;;;38.45;23.08;;;5.80;99.90;;;;;;5111335;28;20062;-65
2021/12/10 00:15:06;;;;;;;41.40;22.25;;;5.70;99.90;;;;;;5111113;28;20048;-65
2021/12/10 00:17:32;;;;;;;38.97;24.05;;;5.70;99.90;;;;;;5084115;28;20079;-65
2021/12/10 00:19:59;;;;;;;39.05;24.73;;;5.70;99.90;;;;;;5128943;28;20047;-65
2021/12/10 00:22:37;;;;;;;40.55;23.70;;;5.50;99.90;;;;;;5101316;28;20135;-65
2021/12/10 00:25:09;;;;;;;43.55;25.80;;;5.60;99.90;;;;;;5128924;28;20051;-65
2021/12/10 00:27:35;;;;;;;38.70;24.25;;;5.50;99.90;;;;;;5110710;28;20039;-65
2021/12/10 00:30:10;;;;;;;39.75;23.63;;;5.50;99.90;;;;;;5108789;28;20051;-65
2021/12/10 00:32:57;;;;;;;40.38;23.23;;;5.60;99.90;;;;;;5118146;28;20078;-65
2021/12/10 00:35:26;;;;;;;42.03;24.50;;;5.70;99.90;;;;;;5109691;28;20091;-65
2021/12/10 00:37:52;;;;;;;39.70;22.55;;;5.80;99.90;;;;;;5108175;28;20039;-65
2021/12/10 00:40:21;;;;;;;36.17;23.83;;;5.90;99.90;;;;;;5092197;28;20044;-65
2021/12/10 00:42:47;;;;;;;42.75;24.58;;;5.60;99.90;;;;;;5091933;28;20039;-65
2021/12/10 00:45:15;;;;;;;41.78;23.30;;;5.60;99.90;;;;;;5092113;28;20074;-65
2021/12/10 00:47:42;;;;;;;35.33;22.20;;;5.60;99.90;;;;;;5119767;28;20040;-65
2021/12/10 00:50:12;;;;;;;35.60;19.92;;;5.80;99.90;;;;;;5103431;28;20073;-65
2021/12/10 00:52:38;;;;;;;37.10;21.17;;;5.90;99.90;;;;;;5103680;28;20058;-65
2021/12/10 00:55:06;;;;;;;42.63;24.35;;;5.80;99.90;;;;;;5109562;28;20054;-65
2021/12/10 00:57:32;;;;;;;39.63;21.02;;;5.60;99.90;;;;;;5110446;28;20091;-65
2021/12/10 00:59:57;;;;;;;37.70;21.08;;;5.70;99.90;;;;;;5083266;28;20040;-65
2021/12/10 01:02:24;;;;;;;40.03;23.15;;;5.80;99.90;;;;;;5120064;28;20294;-65
2021/12/10 01:04:54;;;;;;;40.33;21.75;;;5.70;99.90;;;;;;5127496;28;20039;-65
2021/12/10 01:07:29;;;;;;;34.58;21.65;;;5.60;99.90;;;;;;5121959;28;20043;-65
2021/12/10 01:09:58;;;;;;;47.00;24.63;;;5.60;99.90;;;;;;5083009;28;20046;-65
2021/12/10 01:12:34;;;;;;;40.17;21.42;;;5.60;99.90;;;;;;5110232;28;20059;-65
2021/12/10 01:15:43;;;;;;;33.75;18.40;;;5.70;99.90;;;;;;5128014;28;20067;-65
2021/12/10 01:26:39;;;;;;;30.48;19.45;;;5.80;99.90;;;;;;5127933;28;20048;-65
2021/12/10 01:29:08;;;;;;;31.83;18.25;;;5.90;99.90;;;;;;5127103;28;20095;-65
2021/12/10 01:31:34;;;;;;;27.52;18.70;;;6.00;99.90;;;;;;5109875;28;20099;-65
2021/12/10 01:34:00;;;;;;;37.55;19.83;;;6.00;99.90;;;;;;5127801;28;20046;-65
2021/12/10 01:36:25;;;;;;;34.53;19.52;;;5.90;99.90;;;;;;5128440;28;20032;-65
2021/12/10 01:38:53;;;;;;;26.25;17.55;;;5.80;99.90;;;;;;5088323;28;20110;-65
2021/12/10 01:41:20;;;;;;;28.73;17.33;;;5.70;99.90;;;;;;5105212;28;20044;-65
2021/12/10 01:43:51;;;;;;;29.75;19.33;;;5.80;99.90;;;;;;5120698;28;20036;-65
2021/12/10 01:46:26;;;;;;;35.22;19.73;;;5.80;99.90;;;;;;5098805;28;20051;-65
2021/12/10 01:48:59;;;;;;;37.13;20.90;;;5.70;99.90;;;;;;5108670;28;20039;-65
2021/12/10 01:51:30;;;;;;;26.48;14.13;;;5.70;99.90;;;;;;5096857;28;20052;-65
2021/12/10 01:54:01;;;;;;;30.08;17.83;;;5.80;99.90;;;;;;5125513;28;20454;-65
2021/12/10 01:56:30;;;;;;;31.00;18.83;;;5.90;99.90;;;;;;5108826;28;20050;-65
2021/12/10 01:58:59;;;;;;;29.17;15.60;;;5.80;99.90;;;;;;5102614;28;20036;-65
2021/12/10 02:01:31;;;;;;;26.02;18.15;;;5.80;99.90;;;;;;5120847;28;20308;-65
2021/12/10 02:03:59;;;;;;;27.73;16.00;;;5.70;99.90;;;;;;5126957;28;20044;-65
2021/12/10 02:06:24;;;;;;;28.90;16.60;;;5.70;99.90;;;;;;5108978;28;20399;-65
2021/12/10 02:08:50;;;;;;;25.33;16.95;;;5.70;99.90;;;;;;5083442;28;20047;-65
2021/12/10 02:11:18;;;;;;;25.80;15.43;;;5.60;99.90;;;;;;5108698;28;20045;-65
2021/12/10 02:13:45;;;;;;;27.90;16.55;;;5.80;99.90;;;;;;5108924;28;20051;-65
2021/12/10 02:16:11;;;;;;;29.90;16.13;;;5.70;99.90;;;;;;5127558;28;20047;-65
2021/12/10 02:18:37;;;;;;;27.52;15.52;;;5.60;99.90;;;;;;5108689;28;20043;-65
2021/12/10 02:21:03;;;;;;;26.05;15.15;;;5.60;99.90;;;;;;5113288;28;20077;-65
2021/12/10 02:23:33;;;;;;;26.25;14.68;;;5.40;99.90;;;;;;5126085;28;20096;-65
2021/12/10 02:26:04;;;;;;;26.30;14.03;;;5.40;99.90;;;;;;5127370;28;20054;-65
2021/12/10 02:28:30;;;;;;;22.90;15.05;;;5.70;99.90;;;;;;5095076;28;20048;-65
2021/12/10 02:30:57;;;;;;;25.58;15.88;;;5.70;99.90;;;;;;5126527;28;20132;-65
2021/12/10 02:33:23;;;;;;;23.63;13.95;;;5.70;99.90;;;;;;5099153;28;20506;-65
2021/12/10 02:35:48;;;;;;;24.80;14.38;;;5.70;99.90;;;;;;5108664;28;20043;-65
2021/12/10 02:38:17;;;;;;;25.08;13.88;;;5.90;99.90;;;;;;5121756;28;20075;-65
2021/12/10 02:40:44;;;;;;;21.08;12.27;;;5.90;99.90;;;;;;5105651;28;20100;-65
2021/12/10 02:43:12;;;;;;;24.05;13.63;;;5.80;99.90;;;;;;5093259;28;20051;-65
2021/12/10 02:45:41;;;;;;;22.20;14.38;;;5.70;99.90;;;;;;5113215;28;20083;-65
2021/12/10 02:48:07;;;;;;;20.60;13.90;;;5.70;99.90;;;;;;5087575;28;20047;-65
2021/12/10 02:50:35;;;;;;;26.88;14.65;;;5.60;99.90;;;;;;5107473;28;20047;-65
2021/12/10 02:53:02;;;;;;;23.15;13.23;;;5.60;99.90;;;;;;5081058;28;20059;-65
2021/12/10 02:55:31;;;;;;;23.95;14.25;;;5.60;99.90;;;;;;5089887;28;20126;-65
2021/12/10 02:57:58;;;;;;;22.50;13.43;;;5.60;99.90;;;;;;5107406;28;20085;-65
2021/12/10 03:00:31;;;;;;;23.13;13.40;;;5.50;99.90;;;;;;5081682;28;20048;-65
2021/12/10 03:02:58;;;;;;;25.65;14.13;;;5.40;99.90;;;;;;5094265;28;20043;-65
2021/12/10 03:05:24;;;;;;;21.95;11.60;;;5.30;99.90;;;;;;5107502;28;20054;-65
2021/12/10 03:07:51;;;;;;;29.95;13.60;;;5.40;99.90;;;;;;5102310;28;20076;-65
2021/12/10 03:10:21;;;;;;;25.08;13.63;;;5.50;99.90;;;;;;5107082;28;20070;-65
2021/12/10 03:12:47;;;;;;;17.90;12.48;;;5.60;99.90;;;;;;5099691;28;20048;-65
2021/12/10 03:15:16;;;;;;;26.92;14.40;;;5.60;99.90;;;;;;5108021;28;20073;-65
2021/12/10 03:17:42;;;;;;;26.38;13.55;;;5.60;99.90;;;;;;5081606;28;20048;-65
2021/12/10 03:20:10;;;;;;;23.85;12.43;;;5.70;99.90;;;;;;5107770;28;20073;-65
2021/12/10 03:22:37;;;;;;;21.17;12.27;;;5.80;99.90;;;;;;5125589;28;20066;-65
2021/12/10 03:25:10;;;;;;;26.90;14.70;;;5.80;99.90;;;;;;5125409;28;20107;-65
2021/12/10 03:27:36;;;;;;;22.67;13.65;;;5.60;99.90;;;;;;5106834;28;20135;-65
2021/12/10 03:30:04;;;;;;;22.90;14.75;;;5.50;99.90;;;;;;5107158;28;20052;-65
2021/12/10 03:32:32;;;;;;;22.33;13.02;;;5.50;99.90;;;;;;5073706;28;20058;-65
2021/12/10 03:35:01;;;;;;;22.95;12.52;;;5.80;99.90;;;;;;5100948;28;20080;-65
2021/12/10 03:37:27;;;;;;;22.05;13.57;;;5.90;99.90;;;;;;5080574;28;20051;-65
2021/12/10 03:39:53;;;;;;;23.73;15.23;;;5.70;99.90;;;;;;5091470;28;20135;-65
2021/12/10 03:42:21;;;;;;;23.45;15.13;;;5.90;99.90;;;;;;5079914;28;20759;-65
2021/12/10 03:44:47;;;;;;;20.92;11.60;;;5.80;99.90;;;;;;5089453;28;20449;-65
2021/12/10 03:47:14;;;;;;;30.80;17.27;;;5.90;99.90;;;;;;5107109;28;20595;-65
2021/12/10 03:49:40;;;;;;;31.15;16.80;;;6.00;99.90;;;;;;5101462;28;20165;-65
2021/12/10 03:52:08;;;;;;;25.02;15.55;;;5.90;99.90;;;;;;5092829;28;20126;-65
2021/12/10 03:54:35;;;;;;;29.52;18.08;;;5.90;99.90;;;;;;5125101;28;20115;-65
2021/12/10 03:57:01;;;;;;;28.23;17.60;;;5.90;99.90;;;;;;5079857;28;20046;-65
2021/12/10 03:59:28;;;;;;;26.80;17.15;;;5.80;99.90;;;;;;5096527;28;20080;-65
2021/12/10 04:01:56;;;;;;;26.85;17.67;;;5.90;99.90;;;;;;5095369;28;20104;-65
2021/12/10 04:04:30;;;;;;;28.42;17.10;;;5.80;99.90;;;;;;5106899;28;20075;-65
2021/12/10 04:06:57;;;;;;;24.92;16.88;;;5.80;99.90;;;;;;5096668;28;20047;-65
2021/12/10 04:09:24;;;;;;;25.00;17.08;;;5.80;99.90;;;;;;5118487;28;20064;-65
2021/12/10 04:11:51;;;;;;;26.45;18.00;;;5.70;99.90;;;;;;5111742;28;20040;-65
2021/12/10 04:14:18;;;;;;;27.52;17.85;;;5.60;99.90;;;;;;5111066;28;20072;-65
2021/12/10 04:16:44;;;;;;;27.20;15.65;;;5.50;99.90;;;;;;5117637;28;20044;-65
2021/12/10 04:19:13;;;;;;;23.33;16.20;;;5.70;99.90;;;;;;5100274;28;20044;-65
2021/12/10 04:21:41;;;;;;;22.23;15.63;;;5.70;99.90;;;;;;5106342;28;20073;-65
2021/12/10 04:24:14;;;;;;;23.92;16.60;;;5.70;99.90;;;;;;5092932;28;20117;-65
2021/12/10 04:26:40;;;;;;;26.85;18.48;;;5.60;99.90;;;;;;5106995;28;20553;-65
2021/12/10 04:29:06;;;;;;;25.55;15.43;;;5.30;99.90;;;;;;5093142;28;20587;-65
2021/12/10 04:31:32;;;;;;;19.42;14.63;;;5.40;99.90;;;;;;5106584;28;20108;-65
2021/12/10 04:33:58;;;;;;;24.20;15.30;;;5.40;99.90;;;;;;5105861;28;20060;-65
2021/12/10 04:36:24;;;;;;;25.83;17.88;;;5.30;99.90;;;;;;5094408;28;20110;-65
2021/12/10 04:38:50;;;;;;;27.98;18.13;;;5.10;99.90;;;;;;5097192;28;20040;-65
2021/12/10 04:41:16;;;;;;;25.50;18.67;;;5.00;99.90;;;;;;5103089;28;20047;-65
2021/12/10 04:43:45;;;;;;;30.85;20.30;;;4.90;99.90;;;;;;5104637;28;20099;-65
2021/12/10 04:46:11;;;;;;;30.13;18.90;;;4.90;99.90;;;;;;5124845;28;20059;-65
2021/12/10 04:49:05;;;;;;;27.10;18.90;;;4.90;99.90;;;;;;5096481;28;20044;-65
2021/12/10 04:51:35;;;;;;;28.08;19.73;;;4.70;99.90;;;;;;5100809;28;20109;-66
2021/12/10 04:54:04;;;;;;;24.95;19.23;;;4.80;99.90;;;;;;5106100;28;20051;-65
2021/12/10 04:56:30;;;;;;;29.33;20.55;;;4.80;99.90;;;;;;5106816;28;20047;-65
2021/12/10 04:58:57;;;;;;;27.98;19.48;;;4.70;99.90;;;;;;5099939;28;20052;-65
2021/12/10 05:01:23;;;;;;;28.10;20.70;;;4.60;99.90;;;;;;5099429;28;20095;-65
2021/12/10 05:03:49;;;;;;;29.52;20.95;;;4.50;99.90;;;;;;5107691;28;20047;-65
2021/12/10 05:06:15;;;;;;;28.73;20.85;;;4.50;99.90;;;;;;5099245;28;20063;-65
2021/12/10 05:08:41;;;;;;;28.65;20.27;;;4.50;99.90;;;;;;5106974;28;20040;-65
2021/12/10 05:11:09;;;;;;;27.55;19.35;;;4.50;99.90;;;;;;5092882;28;20047;-65
2021/12/10 05:13:36;;;;;;;27.42;18.50;;;4.50;99.90;;;;;;5095022;28;20043;-65
2021/12/10 05:16:02;;;;;;;25.67;18.77;;;4.50;99.90;;;;;;5099025;28;20523;-65
2021/12/10 05:18:33;;;;;;;26.48;18.33;;;4.40;99.90;;;;;;5107094;28;20051;-65
2021/12/10 05:20:59;;;;;;;24.40;18.27;;;4.30;99.90;;;;;;5109524;28;20050;-65
2021/12/10 05:23:25;;;;;;;24.73;17.58;;;4.30;99.90;;;;;;5108881;28;20061;-65
2021/12/10 05:25:52;;;;;;;26.08;17.25;;;4.30;99.90;;;;;;5127802;28;20130;-65
2021/12/10 05:28:18;;;;;;;24.15;16.80;;;4.20;99.90;;;;;;5108800;28;20071;-65
2021/12/10 05:30:46;;;;;;;23.35;17.67;;;4.10;99.90;;;;;;5127731;28;20040;-65
2021/12/10 05:33:17;;;;;;;20.30;14.90;;;4.10;99.90;;;;;;5106163;28;20048;-65
2021/12/10 05:35:43;;;;;;;;;;;4.20;99.90;;;;;;5100492;28;20056;-65
2021/12/10 05:38:09;;;;;;;21.17;14.93;;;4.10;99.90;;;;;;5123014;28;19923;-65
2021/12/10 05:40:35;;;;;;;19.35;14.68;;;4.00;99.90;;;;;;5088464;28;20059;-65
2021/12/10 05:43:00;;;;;;;20.95;14.85;;;4.00;99.90;;;;;;5084988;28;20051;-65
2021/12/10 05:45:26;;;;;;;17.50;14.07;;;3.90;99.90;;;;;;5088988;28;20122;-65
2021/12/10 05:47:52;;;;;;;19.33;14.55;;;3.90;99.90;;;;;;5107063;28;20059;-65
2021/12/10 05:50:22;;;;;;;23.92;16.90;;;3.90;99.90;;;;;;5078903;28;20130;-65
2021/12/10 05:52:48;;;;;;;24.05;16.40;;;3.80;99.90;;;;;;5109648;28;20060;-65
2021/12/10 05:55:14;;;;;;;22.75;15.98;;;3.80;99.90;;;;;;5092230;28;20130;-65
2021/12/10 05:57:40;;;;;;;20.17;15.85;;;3.70;99.90;;;;;;5124486;28;20118;-65
2021/12/10 06:00:11;;;;;;;20.67;14.95;;;3.60;99.90;;;;;;5100881;28;20492;-65
2021/12/10 06:02:37;;;;;;;21.83;16.13;;;3.50;99.90;;;;;;5104531;28;20072;-65
2021/12/10 06:05:03;;;;;;;21.50;15.45;;;3.50;99.90;;;;;;5108754;28;20507;-65
2021/12/10 06:07:29;;;;;;;23.35;16.27;;;3.40;99.90;;;;;;5103361;28;20047;-65
2021/12/10 06:09:55;;;;;;;22.55;15.77;;;3.30;99.90;;;;;;5117170;28;20044;-65
2021/12/10 06:12:20;;;;;;;19.85;14.90;;;3.30;99.90;;;;;;5103965;28;20044;-65
2021/12/10 06:14:46;;;;;;;19.70;13.88;;;3.20;99.90;;;;;;5091760;28;20074;-65
2021/12/10 06:17:12;;;;;;;18.92;14.93;;;3.20;99.90;;;;;;5108504;28;20099;-65
2021/12/10 06:19:38;;;;;;;19.02;15.00;;;3.20;99.90;;;;;;5108444;28;20077;-65
2021/12/10 06:22:04;;;;;;;23.52;14.68;;;3.20;99.90;;;;;;5102717;28;20046;-65
2021/12/10 06:24:31;;;;;;;19.80;14.55;;;3.10;99.90;;;;;;5057903;28;20109;-66
2021/12/10 06:26:57;;;;;;;18.60;14.50;;;3.10;99.90;;;;;;5059110;28;20166;-65
2021/12/10 06:29:25;;;;;;;17.95;13.38;;;3.10;99.90;;;;;;5079516;28;20638;-65
2021/12/10 06:31:52;;;;;;;19.00;13.85;;;3.10;99.90;;;;;;5099141;28;20070;-66
2021/12/10 06:34:18;;;;;;;18.35;13.00;;;3.10;99.90;;;;;;5090682;28;20129;-66
2021/12/10 06:36:44;;;;;;;19.90;14.35;;;3.00;99.90;;;;;;5102560;28;20052;-66
2021/12/10 06:39:10;;;;;;;17.80;13.45;;;3.00;99.90;;;;;;5108346;28;20043;-65
2021/12/10 06:41:36;;;;;;;18.70;14.30;;;3.00;99.90;;;;;;5077150;28;20052;-67
2021/12/10 06:44:04;;;;;;;17.88;12.85;;;2.90;99.90;;;;;;5072165;28;20044;-68
2021/12/10 06:46:34;;;;;;;19.13;13.45;;;2.90;99.90;;;;;;5085081;28;20070;-68
2021/12/10 06:49:01;;;;;;;17.60;13.80;;;2.90;99.90;;;;;;5088293;28;20052;-68
2021/12/10 06:51:27;;;;;;;18.85;13.25;;;2.90;99.90;;;;;;5096875;28;20044;-68
2021/12/10 06:53:53;;;;;;;16.60;12.25;;;2.90;99.90;;;;;;5059507;28;20077;-69
2021/12/10 06:56:22;;;;;;;18.02;12.35;;;2.80;99.90;;;;;;5080009;28;20047;-68
2021/12/10 06:58:48;;;;;;;14.98;10.25;;;2.90;99.90;;;;;;5073798;28;20492;-69
2021/12/10 07:01:27;;;;;;;14.90;11.55;;;2.80;99.90;;;;;;5018190;27;20134;-69
2021/12/10 07:03:54;;;;;;;18.25;12.45;;;2.80;99.90;;;;;;5074914;28;20040;-69
2021/12/10 07:06:22;;;;;;;16.20;11.27;;;2.80;99.90;;;;;;5099473;27;20403;-69
2021/12/10 07:08:48;;;;;;;15.98;11.23;;;2.80;99.90;;;;;;5100038;27;20048;-70
2021/12/10 07:11:17;;;;;;;17.40;11.63;;;2.70;99.90;;;;;;5101393;28;20084;-70
2021/12/10 07:13:46;;;;;;;16.13;10.45;;;2.70;99.90;;;;;;5130230;27;20051;-70
2021/12/10 07:16:13;;;;;;;15.75;10.80;;;2.60;99.90;;;;;;5098520;28;20466;-70
2021/12/10 07:18:38;;;;;;;17.33;10.73;;;2.50;99.90;;;;;;5098766;28;20260;-70
2021/12/10 07:21:05;;;;;;;14.38;10.23;;;2.50;99.90;;;;;;5091259;28;20138;-71
2021/12/10 07:23:31;;;;;;;15.38;11.43;;;2.40;99.90;;;;;;5117157;28;20059;-70
2021/12/10 07:25:57;;;;;;;14.25;11.10;;;2.40;99.90;;;;;;5107278;28;20050;-70
2021/12/10 07:28:23;;;;;;;16.40;10.85;;;2.30;99.90;;;;;;5083132;28;20063;-69
2021/12/10 07:30:51;;;;;;;16.80;12.15;;;2.40;99.90;;;;;;5088784;28;20048;-69
2021/12/10 07:33:17;;;;;;;15.00;11.88;;;2.40;99.90;;;;;;5095454;28;20044;-69
2021/12/10 07:35:45;;;;;;;18.83;14.65;;;2.30;99.90;;;;;;5088079;28;20081;-70
2021/12/10 07:38:11;;;;;;;18.92;11.77;;;2.40;99.90;;;;;;5084219;28;20051;-69
2021/12/10 07:40:37;;;;;;;15.82;10.90;;;2.30;99.90;;;;;;5088088;28;20044;-69
2021/12/10 07:43:05;;;;;;;18.15;12.52;;;2.30;99.90;;;;;;5096497;28;20078;-67
2021/12/10 07:45:32;;;;;;;15.25;11.80;;;2.40;99.90;;;;;;5087974;28;20055;-69
2021/12/10 07:47:59;;;;;;;14.98;11.00;;;2.30;99.90;;;;;;5098487;28;20048;-68
2021/12/10 07:50:32;;;;;;;15.45;11.30;;;2.30;99.90;;;;;;5083270;28;20044;-69
2021/12/10 07:52:58;;;;;;;16.83;11.85;;;2.30;99.90;;;;;;5102073;28;20050;-68
2021/12/10 07:55:29;;;;;;;21.80;18.45;;;2.30;99.90;;;;;;5085342;28;20104;-69
2021/12/10 07:57:56;;;;;;;25.83;17.63;;;2.30;99.90;;;;;;5117134;28;20046;-68
2021/12/10 08:00:25;;;;;;;17.17;12.25;;;2.30;99.90;;;;;;5073445;28;20083;-69
2021/12/10 08:02:51;;;;;;;16.42;12.13;;;2.40;99.90;;;;;;5082408;28;20063;-65
2021/12/10 08:05:18;;;;;;;29.67;19.20;;;2.30;99.90;;;;;;5099132;28;20043;-64
2021/12/10 08:07:44;;;;;;;19.38;14.48;;;2.40;99.90;;;;;;5086954;28;20551;-65
2021/12/10 08:10:11;;;;;;;16.30;12.40;;;2.40;99.90;;;;;;5099068;28;20044;-65
2021/12/10 08:12:37;;;;;;;17.52;12.00;;;2.40;99.90;;;;;;5090614;28;20048;-65
2021/12/10 08:15:06;;;;;;;15.50;11.55;;;2.30;99.90;;;;;;5100265;28;20062;-66
2021/12/10 08:17:32;;;;;;;17.83;12.18;;;2.30;99.90;;;;;;5091245;28;20048;-65
2021/12/10 08:19:59;;;;;;;18.95;14.27;;;2.30;99.90;;;;;;5099203;28;20055;-65
2021/12/10 08:22:24;;;;;;;20.40;15.45;;;2.30;99.90;;;;;;5083286;28;20117;-65
2021/12/10 08:24:50;;;;;;;24.15;15.55;;;2.30;99.90;;;;;;5081463;28;20051;-64
2021/12/10 08:27:16;;;;;;;20.33;14.70;;;2.40;99.90;;;;;;5088207;28;20595;-65
2021/12/10 08:29:44;;;;;;;18.10;12.43;;;2.50;99.90;;;;;;5116839;28;20043;-65
2021/12/10 08:32:15;;;;;;;19.42;13.70;;;2.60;99.90;;;;;;5108882;28;20073;-65
2021/12/10 08:34:42;;;;;;;14.50;12.05;;;2.60;99.90;;;;;;5102469;28;20089;-65
2021/12/10 08:37:08;;;;;;;24.60;17.08;;;2.60;99.90;;;;;;5109504;28;20451;-65
2021/12/10 08:39:34;;;;;;;21.80;14.88;;;2.60;99.90;;;;;;5085095;28;20050;-65
2021/12/10 08:42:00;;;;;;;20.02;13.98;;;2.60;99.90;;;;;;5086927;28;20048;-65
2021/12/10 08:44:27;;;;;;;19.33;14.20;;;2.50;99.90;;;;;;5094612;28;20058;-64
2021/12/10 08:46:53;;;;;;;19.55;13.35;;;2.50;99.90;;;;;;5110178;28;20055;-64
2021/12/10 08:49:19;;;;;;;16.85;11.70;;;2.60;99.90;;;;;;5096191;28;20135;-65
2021/12/10 08:51:49;;;;;;;17.38;13.07;;;2.60;99.90;;;;;;5107699;28;20083;-65
2021/12/10 08:54:17;;;;;;;18.05;11.38;;;2.70;99.90;;;;;;5102399;28;20044;-65
2021/12/10 08:56:45;;;;;;;16.58;11.40;;;2.70;99.90;;;;;;5086559;28;20051;-65
2021/12/10 08:59:12;;;;;;;15.18;10.70;;;2.70;99.90;;;;;;5063222;28;20058;-66
2021/12/10 09:01:43;;;;;;;17.88;10.85;;;2.80;99.90;;;;;;5046400;28;20056;-65
2021/12/10 09:04:09;;;;;;;16.10;11.18;;;2.80;99.90;;;;;;5079198;28;20087;-64
2021/12/10 09:06:39;;;;;;;20.95;15.05;;;2.90;99.90;;;;;;5092834;28;20051;-64
2021/12/10 09:09:08;;;;;;;15.33;11.70;;;2.90;99.90;;;;;;5120879;28;20035;-65
2021/12/10 09:11:34;;;;;;;13.65;10.55;;;2.90;99.90;;;;;;5108150;28;20323;-65
2021/12/10 09:14:00;;;;;;;16.63;12.00;;;3.00;99.90;;;;;;5095901;28;20747;-64
2021/12/10 09:16:29;;;;;;;13.85;11.13;;;3.00;99.90;;;;;;5090969;28;20077;-64
2021/12/10 09:19:01;;;;;;;17.05;10.98;;;3.00;99.90;;;;;;5098977;28;20050;-64
2021/12/10 09:21:28;;;;;;;18.55;12.68;;;3.10;99.90;;;;;;5105417;28;20056;-64
2021/12/10 09:24:00;;;;;;;15.55;11.43;;;3.10;99.90;;;;;;5108460;28;20056;-64
2021/12/10 09:26:27;;;;;;;13.32;10.05;;;3.30;99.90;;;;;;5090146;28;20044;-64
2021/12/10 09:28:56;;;;;;;14.35;9.55;;;3.40;99.90;;;;;;5100483;28;20135;-64
2021/12/10 09:31:24;;;;;;;12.95;9.55;;;3.30;99.90;;;;;;5075072;28;20048;-64
2021/12/10 09:33:55;;;;;;;16.48;9.32;;;3.30;99.90;;;;;;5091713;28;20416;-64
2021/12/10 09:36:21;;;;;;;13.48;8.65;;;3.40;99.90;;;;;;5088901;28;20550;-64
2021/12/10 09:38:47;;;;;;;14.70;9.40;;;3.40;99.90;;;;;;5089177;28;20047;-64
2021/12/10 09:41:14;;;;;;;11.43;8.85;;;3.40;99.90;;;;;;5070635;28;20181;-65
2021/12/10 09:43:41;;;;;;;12.50;9.57;;;3.50;99.90;;;;;;5091650;28;20236;-65
2021/12/10 09:46:09;;;;;;;11.70;8.43;;;3.60;99.90;;;;;;5072613;28;20056;-64
2021/12/10 09:48:35;;;;;;;11.98;8.50;;;3.60;99.90;;;;;;5082492;28;20131;-65
2021/12/10 09:51:26;;;;;;;13.57;9.05;;;3.70;99.90;;;;;;5087258;28;20048;-64
2021/12/10 09:53:56;;;;;;;14.88;9.88;;;3.70;99.90;;;;;;5099884;28;20052;-64
2021/12/10 09:56:23;;;;;;;;;;;3.80;99.90;;;;;;5096194;28;21424;-64
2021/12/10 09:58:49;;;;;;;11.52;8.23;;;3.90;99.90;;;;;;5098906;28;20083;-64
2021/12/10 10:01:22;;;;;;;13.25;9.00;;;3.90;99.90;;;;;;5060082;28;20040;-64
2021/12/10 10:03:50;;;;;;;12.75;8.63;;;4.10;99.90;;;;;;5088806;28;20162;-64
2021/12/10 10:06:18;;;;;;;11.38;7.60;;;4.30;99.90;;;;;;5073486;28;20051;-65
2021/12/10 10:08:45;;;;;;;13.20;8.82;;;4.30;99.90;;;;;;5072484;28;20044;-64
2021/12/10 10:11:16;;;;;;;12.15;8.07;;;4.40;99.90;;;;;;5072048;28;20048;-64
2021/12/10 10:13:44;;;;;;;11.10;8.70;;;4.40;99.90;;;;;;5079257;28;20060;-65
2021/12/10 10:16:11;;;;;;;9.82;7.90;;;4.40;99.90;;;;;;5070267;28;20114;-65
2021/12/10 10:18:40;;;;;;;10.00;7.43;;;4.40;99.90;;;;;;5059824;28;20045;-64
2021/12/10 10:21:12;;;;;;;10.98;8.15;;;4.40;99.90;;;;;;5068139;28;20088;-65
2021/12/10 10:23:41;;;;;;;10.13;8.07;;;4.50;99.90;;;;;;5079685;28;20434;-65
2021/12/10 10:26:12;;;;;;;11.55;8.23;;;4.60;99.90;;;;;;5087335;28;20078;-64
2021/12/10 10:28:38;;;;;;;9.52;7.68;;;4.70;99.90;;;;;;5092576;28;20071;-65
2021/12/10 10:31:10;;;;;;;12.75;8.88;;;4.70;99.90;;;;;;5081094;28;20076;-65
2021/12/10 10:33:37;;;;;;;10.60;8.18;;;4.80;99.90;;;;;;5071567;28;20052;-64
2021/12/10 10:36:08;;;;;;;10.57;6.90;;;4.70;99.90;;;;;;5085922;28;20036;-65
2021/12/10 10:38:34;;;;;;;;;;;4.80;99.90;;;;;;5089478;28;20125;-65
2021/12/10 10:41:08;;;;;;;11.60;7.00;;;4.90;99.90;;;;;;5054208;28;20405;-66
2021/12/10 10:43:36;;;;;;;9.38;7.85;;;5.10;99.90;;;;;;5092127;28;20044;-64
2021/12/10 10:46:02;;;;;;;11.23;7.15;;;5.20;99.90;;;;;;5064592;28;20049;-65
2021/12/10 10:48:28;;;;;;;11.95;7.47;;;5.20;99.90;;;;;;5071274;28;20055;-64
2021/12/10 10:51:10;;;;;;;9.23;6.68;;;5.30;99.90;;;;;;5082705;28;20055;-65
2021/12/10 10:53:47;;;;;;;8.10;7.03;;;5.40;99.90;;;;;;5089628;28;20060;-65
2021/12/10 10:56:30;;;;;;;12.27;6.78;;;5.50;99.90;;;;;;5106218;28;20067;-65
2021/12/10 10:59:01;;;;;;;7.47;6.07;;;5.60;99.90;;;;;;5086172;28;20043;-64
2021/12/10 11:01:46;;;;;;;;;;;5.80;99.90;;;;;;5075585;28;20051;-65
2021/12/10 11:04:24;;;;;;;9.63;6.93;;;5.70;99.90;;;;;;5080791;28;19947;-64
2021/12/10 11:06:53;;;;;;;10.85;7.15;;;5.70;99.90;;;;;;5093031;27;20061;-64
2021/12/10 11:09:29;;;;;;;8.95;6.28;;;5.70;99.90;;;;;;5116616;28;20305;-65
2021/12/10 11:12:03;;;;;;;7.93;6.28;;;5.80;99.90;;;;;;5105714;28;20076;-65
2021/12/10 11:14:33;;;;;;;10.77;6.65;;;5.90;99.90;;;;;;5098879;28;20052;-65
2021/12/10 11:17:10;;;;;;;8.35;6.18;;;6.00;99.90;;;;;;5095219;28;20332;-65
2021/12/10 11:19:36;;;;;;;9.73;6.07;;;6.00;99.90;;;;;;5108160;28;20495;-65
2021/12/10 11:22:11;;;;;;;12.68;9.20;;;6.00;99.90;;;;;;5106014;28;20063;-65
2021/12/10 11:24:46;;;;;;;9.50;6.13;;;6.00;99.90;;;;;;5085367;28;20052;-65
2021/12/10 11:27:19;;;;;;;10.02;7.90;;;6.10;99.90;;;;;;5090924;28;20051;-65
2021/12/10 11:30:01;;;;;;;10.15;6.43;;;6.20;99.90;;;;;;5092585;28;20144;-67
2021/12/10 11:32:44;;;;;;;8.50;6.30;;;6.30;99.90;;;;;;5080625;28;20058;-65
2021/12/10 11:35:21;;;;;;;7.90;5.78;;;6.20;99.90;;;;;;5089737;28;20071;-65
2021/12/10 11:38:07;;;;;;;7.38;5.40;;;6.20;99.90;;;;;;5088644;28;20048;-65
2021/12/10 11:40:54;;;;;;;8.98;5.43;;;6.30;99.90;;;;;;5083007;28;20054;-65
2021/12/10 11:49:04;;;;;;;8.25;5.85;;;6.40;99.90;;;;;;5055165;28;20071;-65
2021/12/10 11:51:35;;;;;;;8.52;5.88;;;6.50;99.90;;;;;;5051982;28;20132;-65
2021/12/10 11:54:05;;;;;;;8.23;5.90;;;6.40;99.90;;;;;;5051554;28;20051;-65
2021/12/10 11:56:38;;;;;;;;;;;6.30;99.90;;;;;;5065597;28;20053;-65
2021/12/10 11:59:18;;;;;;;7.15;4.93;;;6.30;99.90;;;;;;5088580;28;20789;-65
2021/12/10 12:02:01;;;;;;;8.03;5.13;;;6.30;99.90;;;;;;5058356;28;20090;-65
2021/12/10 12:04:38;;;;;;;7.45;5.95;;;6.30;99.90;;;;;;5085743;28;20651;-64
2021/12/10 12:07:13;;;;;;;8.38;5.43;;;6.50;99.90;;;;;;5067201;28;20045;-64
2021/12/10 12:09:40;;;;;;;9.30;6.13;;;6.60;99.90;;;;;;5075379;28;20588;-65
2021/12/10 12:12:15;;;;;;;9.85;5.35;;;6.50;99.90;;;;;;5079536;28;20082;-65
2021/12/10 12:14:50;;;;;;;6.50;4.47;;;6.50;99.90;;;;;;5080788;28;20056;-65
2021/12/10 12:17:50;;;;;;;6.43;3.67;;;6.50;99.90;;;;;;5051671;28;20041;-65
2021/12/10 12:20:27;;;;;;;7.30;4.35;;;6.40;99.90;;;;;;4966928;28;20046;-65
2021/12/10 12:25:57;;;;;;;9.70;5.20;;;6.10;99.90;;;;;;5005843;28;20057;-65
2021/12/10 12:28:24;;;;;;;5.57;4.25;;;6.10;99.90;;;;;;5026848;28;20052;-65
2021/12/10 12:30:58;;;;;;;6.20;3.67;;;6.00;99.90;;;;;;5036939;28;20057;-65
2021/12/10 12:33:26;;;;;;;8.02;4.43;;;6.00;99.90;;;;;;5002888;28;20073;-65
2021/12/10 12:35:56;;;;;;;8.65;4.75;;;5.90;99.90;;;;;;5035149;28;20045;-65
2021/12/10 12:38:29;;;;;;;7.38;4.30;;;5.90;99.90;;;;;;5018429;28;20115;-65
2021/12/10 12:41:22;;;;;;;6.88;4.43;;;5.90;99.90;;;;;;5008327;28;20203;-65
2021/12/10 12:44:15;;;;;;;7.85;4.72;;;5.90;99.90;;;;;;4997739;28;20093;-66
2021/12/10 12:46:58;;;;;;;6.88;4.65;;;5.70;99.90;;;;;;5013469;28;20053;-66
2021/12/10 12:49:25;;;;;;;9.38;4.65;;;5.70;99.90;;;;;;5000452;28;20093;-65
2021/12/10 12:52:08;;;;;;;8.20;4.85;;;5.60;99.90;;;;;;4978040;28;20546;-66
2021/12/10 12:54:38;;;;;;;10.57;4.70;;;5.60;99.90;;;;;;5013340;28;20045;-67
2021/12/10 12:57:07;;;;;;;9.48;4.85;;;5.60;99.90;;;;;;5080216;28;20067;-66
2021/12/10 12:59:33;;;;;;;8.15;5.43;;;5.50;99.90;;;;;;5067032;28;20049;-66
2021/12/10 13:02:04;;;;;;;8.40;4.80;;;5.40;99.90;;;;;;5062567;28;20130;-66
2021/12/10 13:04:38;;;;;;;7.72;4.65;;;5.40;99.90;;;;;;5088130;28;20044;-66
2021/12/10 13:07:13;;;;;;;10.45;6.15;;;5.30;99.90;;;;;;5076531;28;20070;-67
2021/12/10 13:09:47;;;;;;;9.20;5.28;;;5.30;99.90;;;;;;5079032;28;20058;-67